sensor_id;sensor_type;location;lat;lon;timestamp;P1;durP1;ratioP1;P2;durP2;ratioP2
73909;SDS011;62245;48.070;7.874;2024-02-28T00:01:06;15.97;;;8.03;;
73909;SDS011;62245;48.070;7.874;2024-02-28T00:03:31;15.97;;;8.37;;
73909;SDS011;62245;48.070;7.874;2024-02-28T00:05:58;15.73;;;8.02;;
73909;SDS011;62245;48.070;7.874;2024-02-28T00:08:23;14.07;;;7.87;;
73909;SDS011;62245;48.070;7.874;2024-02-28T00:10:48;16.43;;;8.83;;
73909;SDS011;62245;48.070;7.874;2024-02-28T00:13:14;14.18;;;8.20;;
73909;SDS011;62245;48.070;7.874;2024-02-28T00:15:40;13.63;;;7.35;;
73909;SDS011;62245;48.070;7.874;2024-02-28T00:18:05;15.17;;;8.10;;
73909;SDS011;62245;48.070;7.874;2024-02-28T00:20:31;15.35;;;8.27;;
73909;SDS011;62245;48.070;7.874;2024-02-28T00:22:56;15.82;;;7.78;;
73909;SDS011;62245;48.070;7.874;2024-02-28T00:25:21;12.73;;;7.00;;
73909;SDS011;62245;48.070;7.874;2024-02-28T00:27:47;14.23;;;7.63;;
73909;SDS011;62245;48.070;7.874;2024-02-28T00:30:12;17.15;;;8.65;;
73909;SDS011;62245;48.070;7.874;2024-02-28T00:32:38;12.43;;;7.18;;
73909;SDS011;62245;48.070;7.874;2024-02-28T00:35:04;15.23;;;7.47;;
73909;SDS011;62245;48.070;7.874;2024-02-28T00:37:29;14.80;;;8.05;;
73909;SDS011;62245;48.070;7.874;2024-02-28T00:39:55;14.80;;;7.65;;
73909;SDS011;62245;48.070;7.874;2024-02-28T00:42:21;17.37;;;8.30;;
73909;SDS011;62245;48.070;7.874;2024-02-28T00:44:46;15.00;;;8.25;;
73909;SDS011;62245;48.070;7.874;2024-02-28T00:47:11;16.33;;;8.77;;
73909;SDS011;62245;48.070;7.874;2024-02-28T00:49:37;16.90;;;9.70;;
73909;SDS011;62245;48.070;7.874;2024-02-28T00:52:02;18.85;;;9.80;;
73909;SDS011;62245;48.070;7.874;2024-02-28T00:54:28;18.13;;;9.93;;
73909;SDS011;62245;48.070;7.874;2024-02-28T00:56:53;15.63;;;9.00;;
73909;SDS011;62245;48.070;7.874;2024-02-28T00:59:18;17.77;;;9.53;;
73909;SDS011;62245;48.070;7.874;2024-02-28T04:02:34;23.58;;;12.90;;
73909;SDS011;62245;48.070;7.874;2024-02-28T04:05:00;21.63;;;11.43;;
73909;SDS011;62245;48.070;7.874;2024-02-28T04:07:25;22.00;;;11.50;;
73909;SDS011;62245;48.070;7.874;2024-02-28T04:09:50;26.50;;;12.67;;
73909;SDS011;62245;48.070;7.874;2024-02-28T04:12:15;22.47;;;11.33;;
73909;SDS011;62245;48.070;7.874;2024-02-28T04:14:41;22.83;;;12.50;;
73909;SDS011;62245;48.070;7.874;2024-02-28T04:17:06;22.50;;;12.35;;
73909;SDS011;62245;48.070;7.874;2024-02-28T04:19:34;21.88;;;11.73;;
73909;SDS011;62245;48.070;7.874;2024-02-28T04:22:04;23.35;;;12.85;;
73909;SDS011;62245;48.070;7.874;2024-02-28T04:24:29;25.13;;;12.57;;
73909;SDS011;62245;48.070;7.874;2024-02-28T04:26:54;22.70;;;12.23;;
73909;SDS011;62245;48.070;7.874;2024-02-28T04:29:20;22.80;;;11.32;;
73909;SDS011;62245;48.070;7.874;2024-02-28T04:31:45;22.47;;;11.53;;
73909;SDS011;62245;48.070;7.874;2024-02-28T04:34:10;22.87;;;11.70;;
73909;SDS011;62245;48.070;7.874;2024-02-28T04:36:35;24.83;;;11.87;;
73909;SDS011;62245;48.070;7.874;2024-02-28T04:39:01;22.23;;;11.80;;
73909;SDS011;62245;48.070;7.874;2024-02-28T04:41:27;23.60;;;11.95;;
73909;SDS011;62245;48.070;7.874;2024-02-28T04:43:53;21.70;;;10.88;;
73909;SDS011;62245;48.070;7.874;2024-02-28T04:46:18;24.60;;;12.05;;
73909;SDS011;62245;48.070;7.874;2024-02-28T04:48:44;23.90;;;11.90;;
73909;SDS011;62245;48.070;7.874;2024-02-28T04:51:09;21.30;;;11.67;;
73909;SDS011;62245;48.070;7.874;2024-02-28T04:53:34;24.20;;;12.90;;
73909;SDS011;62245;48.070;7.874;2024-02-28T04:55:59;22.97;;;12.60;;
73909;SDS011;62245;48.070;7.874;2024-02-28T04:58:25;21.75;;;11.55;;
73909;SDS011;62245;48.070;7.874;2024-02-28T05:00:50;22.67;;;11.70;;
73909;SDS011;62245;48.070;7.874;2024-02-28T05:03:16;24.25;;;13.10;;
73909;SDS011;62245;48.070;7.874;2024-02-28T05:05:41;23.30;;;12.57;;
73909;SDS011;62245;48.070;7.874;2024-02-28T05:08:07;23.77;;;13.87;;
73909;SDS011;62245;48.070;7.874;2024-02-28T05:10:32;21.58;;;11.48;;
73909;SDS011;62245;48.070;7.874;2024-02-28T05:12:59;24.10;;;12.13;;
73909;SDS011;62245;48.070;7.874;2024-02-28T05:15:24;26.55;;;13.32;;
73909;SDS011;62245;48.070;7.874;2024-02-28T05:17:50;25.27;;;13.23;;
73909;SDS011;62245;48.070;7.874;2024-02-28T05:20:16;24.65;;;12.43;;
73909;SDS011;62245;48.070;7.874;2024-02-28T05:22:42;25.40;;;12.88;;
73909;SDS011;62245;48.070;7.874;2024-02-28T05:25:07;24.40;;;11.90;;
73909;SDS011;62245;48.070;7.874;2024-02-28T05:27:33;22.40;;;11.75;;
73909;SDS011;62245;48.070;7.874;2024-02-28T05:29:58;23.30;;;12.37;;
73909;SDS011;62245;48.070;7.874;2024-02-28T05:32:26;25.75;;;12.48;;
73909;SDS011;62245;48.070;7.874;2024-02-28T05:34:51;25.25;;;12.77;;
73909;SDS011;62245;48.070;7.874;2024-02-28T05:37:16;22.77;;;12.10;;
73909;SDS011;62245;48.070;7.874;2024-02-28T05:39:42;26.40;;;13.05;;
73909;SDS011;62245;48.070;7.874;2024-02-28T05:42:07;25.77;;;13.50;;
73909;SDS011;62245;48.070;7.874;2024-02-28T05:44:34;26.20;;;13.32;;
73909;SDS011;62245;48.070;7.874;2024-02-28T05:46:59;24.35;;;13.05;;
73909;SDS011;62245;48.070;7.874;2024-02-28T05:49:25;26.85;;;13.68;;
73909;SDS011;62245;48.070;7.874;2024-02-28T05:51:50;25.50;;;14.38;;
73909;SDS011;62245;48.070;7.874;2024-02-28T05:54:16;22.20;;;11.52;;
73909;SDS011;62245;48.070;7.874;2024-02-28T05:56:41;25.70;;;12.63;;
73909;SDS011;62245;48.070;7.874;2024-02-28T05:59:06;25.95;;;12.73;;
73909;SDS011;62245;48.070;7.874;2024-02-28T06:01:32;21.03;;;11.43;;
73909;SDS011;62245;48.070;7.874;2024-02-28T06:03:57;25.23;;;13.07;;
73909;SDS011;62245;48.070;7.874;2024-02-28T06:06:22;27.37;;;14.33;;
73909;SDS011;62245;48.070;7.874;2024-02-28T06:08:47;27.25;;;13.85;;
73909;SDS011;62245;48.070;7.874;2024-02-28T06:11:13;23.23;;;12.68;;
73909;SDS011;62245;48.070;7.874;2024-02-28T06:13:41;24.60;;;12.70;;
73909;SDS011;62245;48.070;7.874;2024-02-28T06:16:07;25.35;;;13.18;;
73909;SDS011;62245;48.070;7.874;2024-02-28T06:18:32;25.20;;;12.98;;
73909;SDS011;62245;48.070;7.874;2024-02-28T06:20:58;25.48;;;13.43;;
73909;SDS011;62245;48.070;7.874;2024-02-28T06:23:24;24.90;;;12.70;;
73909;SDS011;62245;48.070;7.874;2024-02-28T06:25:50;24.50;;;14.13;;
73909;SDS011;62245;48.070;7.874;2024-02-28T06:28:15;26.00;;;13.10;;
73909;SDS011;62245;48.070;7.874;2024-02-28T06:30:42;26.50;;;12.67;;
73909;SDS011;62245;48.070;7.874;2024-02-28T06:33:08;25.83;;;13.20;;
73909;SDS011;62245;48.070;7.874;2024-02-28T06:35:34;25.40;;;13.50;;
73909;SDS011;62245;48.070;7.874;2024-02-28T06:37:59;25.27;;;13.57;;
73909;SDS011;62245;48.070;7.874;2024-02-28T06:40:25;25.75;;;13.18;;
73909;SDS011;62245;48.070;7.874;2024-02-28T06:42:50;28.80;;;14.20;;
73909;SDS011;62245;48.070;7.874;2024-02-28T06:45:15;27.77;;;13.67;;
73909;SDS011;62245;48.070;7.874;2024-02-28T06:47:41;34.33;;;15.70;;
73909;SDS011;62245;48.070;7.874;2024-02-28T06:50:06;38.10;;;16.20;;
73909;SDS011;62245;48.070;7.874;2024-02-28T06:52:33;29.83;;;15.13;;
73909;SDS011;62245;48.070;7.874;2024-02-28T06:55:00;29.77;;;14.88;;
73909;SDS011;62245;48.070;7.874;2024-02-28T06:57:28;32.20;;;15.93;;
73909;SDS011;62245;48.070;7.874;2024-02-28T06:59:53;30.50;;;14.50;;
73909;SDS011;62245;48.070;7.874;2024-02-28T07:02:18;27.73;;;13.37;;
73909;SDS011;62245;48.070;7.874;2024-02-28T07:04:44;27.60;;;14.40;;
73909;SDS011;62245;48.070;7.874;2024-02-28T07:07:09;26.27;;;14.43;;
73909;SDS011;62245;48.070;7.874;2024-02-28T07:09:34;27.83;;;14.30;;
73909;SDS011;62245;48.070;7.874;2024-02-28T07:12:00;29.92;;;15.27;;
73909;SDS011;62245;48.070;7.874;2024-02-28T07:14:26;25.55;;;14.35;;
73909;SDS011;62245;48.070;7.874;2024-02-28T07:16:51;31.08;;;15.15;;
73909;SDS011;62245;48.070;7.874;2024-02-28T07:19:17;29.42;;;13.63;;
73909;SDS011;62245;48.070;7.874;2024-02-28T07:21:42;26.95;;;14.10;;
73909;SDS011;62245;48.070;7.874;2024-02-28T07:24:08;26.80;;;13.88;;
73909;SDS011;62245;48.070;7.874;2024-02-28T07:26:33;27.13;;;13.77;;
73909;SDS011;62245;48.070;7.874;2024-02-28T07:28:58;27.17;;;13.60;;
73909;SDS011;62245;48.070;7.874;2024-02-28T07:31:25;26.33;;;14.60;;
73909;SDS011;62245;48.070;7.874;2024-02-28T07:33:50;27.10;;;14.20;;
73909;SDS011;62245;48.070;7.874;2024-02-28T07:36:15;29.57;;;15.40;;
73909;SDS011;62245;48.070;7.874;2024-02-28T07:38:41;25.23;;;13.43;;
73909;SDS011;62245;48.070;7.874;2024-02-28T07:41:07;26.70;;;13.77;;
73909;SDS011;62245;48.070;7.874;2024-02-28T07:43:32;28.38;;;14.82;;
73909;SDS011;62245;48.070;7.874;2024-02-28T07:46:02;28.50;;;14.40;;
73909;SDS011;62245;48.070;7.874;2024-02-28T07:48:27;29.83;;;14.50;;
73909;SDS011;62245;48.070;7.874;2024-02-28T07:50:53;29.57;;;14.93;;
73909;SDS011;62245;48.070;7.874;2024-02-28T07:53:18;29.67;;;15.17;;
73909;SDS011;62245;48.070;7.874;2024-02-28T07:55:43;27.45;;;13.48;;
73909;SDS011;62245;48.070;7.874;2024-02-28T07:58:12;29.17;;;14.57;;
73909;SDS011;62245;48.070;7.874;2024-02-28T08:00:37;29.37;;;14.53;;
73909;SDS011;62245;48.070;7.874;2024-02-28T08:03:03;30.38;;;16.65;;
73909;SDS011;62245;48.070;7.874;2024-02-28T08:05:28;29.33;;;14.63;;
73909;SDS011;62245;48.070;7.874;2024-02-28T08:07:54;30.00;;;15.57;;
73909;SDS011;62245;48.070;7.874;2024-02-28T08:10:19;28.65;;;14.70;;
73909;SDS011;62245;48.070;7.874;2024-02-28T08:12:45;37.05;;;17.50;;
73909;SDS011;62245;48.070;7.874;2024-02-28T08:15:10;34.88;;;17.13;;
73909;SDS011;62245;48.070;7.874;2024-02-28T08:17:35;26.40;;;13.93;;
73909;SDS011;62245;48.070;7.874;2024-02-28T08:20:02;27.13;;;13.50;;
73909;SDS011;62245;48.070;7.874;2024-02-28T08:22:29;28.80;;;13.77;;
73909;SDS011;62245;48.070;7.874;2024-02-28T08:24:55;29.50;;;14.65;;
73909;SDS011;62245;48.070;7.874;2024-02-28T08:27:20;29.17;;;14.90;;
73909;SDS011;62245;48.070;7.874;2024-02-28T08:29:46;27.60;;;13.60;;
73909;SDS011;62245;48.070;7.874;2024-02-28T08:32:12;28.85;;;14.45;;
73909;SDS011;62245;48.070;7.874;2024-02-28T08:34:38;31.27;;;15.02;;
73909;SDS011;62245;48.070;7.874;2024-02-28T08:37:03;30.45;;;15.13;;
73909;SDS011;62245;48.070;7.874;2024-02-28T08:39:28;32.10;;;15.27;;
73909;SDS011;62245;48.070;7.874;2024-02-28T08:41:54;29.07;;;14.97;;
73909;SDS011;62245;48.070;7.874;2024-02-28T08:44:19;31.33;;;15.48;;
73909;SDS011;62245;48.070;7.874;2024-02-28T08:46:46;31.08;;;16.05;;
73909;SDS011;62245;48.070;7.874;2024-02-28T08:49:13;30.75;;;14.38;;
73909;SDS011;62245;48.070;7.874;2024-02-28T08:51:38;31.58;;;15.25;;
73909;SDS011;62245;48.070;7.874;2024-02-28T08:54:05;33.90;;;15.65;;
73909;SDS011;62245;48.070;7.874;2024-02-28T08:56:30;30.67;;;16.53;;
73909;SDS011;62245;48.070;7.874;2024-02-28T08:58:55;31.87;;;15.73;;
73909;SDS011;62245;48.070;7.874;2024-02-28T09:01:21;33.00;;;15.87;;
73909;SDS011;62245;48.070;7.874;2024-02-28T09:03:46;31.30;;;16.37;;
73909;SDS011;62245;48.070;7.874;2024-02-28T09:06:11;30.90;;;15.20;;
73909;SDS011;62245;48.070;7.874;2024-02-28T09:08:36;33.13;;;15.60;;
73909;SDS011;62245;48.070;7.874;2024-02-28T09:11:02;32.43;;;16.07;;
73909;SDS011;62245;48.070;7.874;2024-02-28T09:13:27;31.70;;;15.90;;
73909;SDS011;62245;48.070;7.874;2024-02-28T09:15:53;33.03;;;14.97;;
73909;SDS011;62245;48.070;7.874;2024-02-28T09:18:18;35.57;;;17.30;;
73909;SDS011;62245;48.070;7.874;2024-02-28T09:20:43;38.17;;;17.67;;
73909;SDS011;62245;48.070;7.874;2024-02-28T09:23:08;31.37;;;15.80;;
73909;SDS011;62245;48.070;7.874;2024-02-28T09:25:34;31.52;;;16.23;;
73909;SDS011;62245;48.070;7.874;2024-02-28T09:28:00;33.20;;;16.05;;
73909;SDS011;62245;48.070;7.874;2024-02-28T09:30:26;34.03;;;15.77;;
73909;SDS011;62245;48.070;7.874;2024-02-28T09:32:51;29.33;;;15.00;;
73909;SDS011;62245;48.070;7.874;2024-02-28T09:35:16;28.65;;;15.10;;
73909;SDS011;62245;48.070;7.874;2024-02-28T09:37:42;31.45;;;14.68;;
73909;SDS011;62245;48.070;7.874;2024-02-28T09:40:10;30.93;;;15.80;;
73909;SDS011;62245;48.070;7.874;2024-02-28T09:42:36;32.00;;;16.02;;
73909;SDS011;62245;48.070;7.874;2024-02-28T09:45:01;29.48;;;15.18;;
73909;SDS011;62245;48.070;7.874;2024-02-28T09:47:28;29.85;;;14.73;;
73909;SDS011;62245;48.070;7.874;2024-02-28T09:49:53;25.02;;;13.32;;
73909;SDS011;62245;48.070;7.874;2024-02-28T09:52:26;25.98;;;14.13;;
73909;SDS011;62245;48.070;7.874;2024-02-28T09:54:52;25.23;;;14.25;;
73909;SDS011;62245;48.070;7.874;2024-02-28T09:57:18;27.27;;;16.00;;
73909;SDS011;62245;48.070;7.874;2024-02-28T09:59:43;25.75;;;14.95;;
73909;SDS011;62245;48.070;7.874;2024-02-28T10:02:09;23.92;;;14.50;;
73909;SDS011;62245;48.070;7.874;2024-02-28T10:04:36;24.77;;;15.27;;
73909;SDS011;62245;48.070;7.874;2024-02-28T10:07:11;22.67;;;14.02;;
73909;SDS011;62245;48.070;7.874;2024-02-28T10:09:40;21.88;;;13.30;;
73909;SDS011;62245;48.070;7.874;2024-02-28T10:12:06;21.33;;;13.80;;
73909;SDS011;62245;48.070;7.874;2024-02-28T10:14:32;23.27;;;15.88;;
73909;SDS011;62245;48.070;7.874;2024-02-28T10:16:57;19.40;;;12.97;;
73909;SDS011;62245;48.070;7.874;2024-02-28T10:19:22;22.15;;;13.85;;
73909;SDS011;62245;48.070;7.874;2024-02-28T10:21:48;22.77;;;15.17;;
73909;SDS011;62245;48.070;7.874;2024-02-28T10:24:13;24.83;;;15.82;;
73909;SDS011;62245;48.070;7.874;2024-02-28T10:26:45;19.27;;;14.20;;
73909;SDS011;62245;48.070;7.874;2024-02-28T10:29:20;19.58;;;13.48;;
73909;SDS011;62245;48.070;7.874;2024-02-28T10:31:54;23.42;;;16.20;;
73909;SDS011;62245;48.070;7.874;2024-02-28T10:34:20;19.67;;;14.93;;
73909;SDS011;62245;48.070;7.874;2024-02-28T10:36:45;21.80;;;15.80;;
73909;SDS011;62245;48.070;7.874;2024-02-28T10:39:11;24.13;;;17.08;;
73909;SDS011;62245;48.070;7.874;2024-02-28T10:41:39;22.80;;;15.65;;
73909;SDS011;62245;48.070;7.874;2024-02-28T10:44:05;21.25;;;16.85;;
73909;SDS011;62245;48.070;7.874;2024-02-28T10:46:30;24.17;;;17.30;;
73909;SDS011;62245;48.070;7.874;2024-02-28T10:48:56;24.08;;;19.05;;
73909;SDS011;62245;48.070;7.874;2024-02-28T10:51:25;20.23;;;15.23;;
73909;SDS011;62245;48.070;7.874;2024-02-28T10:54:01;18.25;;;14.45;;
73909;SDS011;62245;48.070;7.874;2024-02-28T10:56:32;25.35;;;18.83;;
73909;SDS011;62245;48.070;7.874;2024-02-28T10:58:59;21.35;;;17.10;;
73909;SDS011;62245;48.070;7.874;2024-02-28T11:01:24;18.42;;;14.45;;
73909;SDS011;62245;48.070;7.874;2024-02-28T11:03:50;19.50;;;15.70;;
73909;SDS011;62245;48.070;7.874;2024-02-28T11:06:17;16.42;;;12.85;;
73909;SDS011;62245;48.070;7.874;2024-02-28T11:08:46;21.00;;;15.57;;
73909;SDS011;62245;48.070;7.874;2024-02-28T11:11:19;19.77;;;15.35;;
73909;SDS011;62245;48.070;7.874;2024-02-28T11:13:51;19.02;;;14.07;;
73909;SDS011;62245;48.070;7.874;2024-02-28T11:16:25;18.85;;;13.73;;
73909;SDS011;62245;48.070;7.874;2024-02-28T11:18:52;19.27;;;15.40;;
73909;SDS011;62245;48.070;7.874;2024-02-28T11:21:18;18.02;;;13.60;;
73909;SDS011;62245;48.070;7.874;2024-02-28T11:23:46;18.60;;;14.53;;
73909;SDS011;62245;48.070;7.874;2024-02-28T11:26:13;17.02;;;12.10;;
73909;SDS011;62245;48.070;7.874;2024-02-28T11:28:38;20.50;;;12.40;;
73909;SDS011;62245;48.070;7.874;2024-02-28T11:31:04;19.83;;;14.25;;
73909;SDS011;62245;48.070;7.874;2024-02-28T11:33:29;18.87;;;12.53;;
73909;SDS011;62245;48.070;7.874;2024-02-28T11:35:56;19.07;;;12.40;;
73909;SDS011;62245;48.070;7.874;2024-02-28T11:38:24;21.13;;;13.45;;
73909;SDS011;62245;48.070;7.874;2024-02-28T11:40:50;21.58;;;14.18;;
73909;SDS011;62245;48.070;7.874;2024-02-28T11:43:15;21.55;;;13.75;;
73909;SDS011;62245;48.070;7.874;2024-02-28T11:45:40;21.10;;;13.48;;
73909;SDS011;62245;48.070;7.874;2024-02-28T11:48:08;23.08;;;14.52;;
73909;SDS011;62245;48.070;7.874;2024-02-28T11:50:34;20.95;;;13.73;;
73909;SDS011;62245;48.070;7.874;2024-02-28T11:52:59;20.90;;;13.30;;
73909;SDS011;62245;48.070;7.874;2024-02-28T11:55:26;20.67;;;12.35;;
73909;SDS011;62245;48.070;7.874;2024-02-28T11:57:52;20.98;;;11.90;;
73909;SDS011;62245;48.070;7.874;2024-02-28T12:00:17;21.00;;;12.20;;
73909;SDS011;62245;48.070;7.874;2024-02-28T12:02:43;22.02;;;12.27;;
73909;SDS011;62245;48.070;7.874;2024-02-28T12:05:08;20.73;;;12.00;;
73909;SDS011;62245;48.070;7.874;2024-02-28T12:07:34;23.80;;;11.65;;
73909;SDS011;62245;48.070;7.874;2024-02-28T12:10:00;19.63;;;10.90;;
73909;SDS011;62245;48.070;7.874;2024-02-28T12:12:28;19.95;;;11.10;;
73909;SDS011;62245;48.070;7.874;2024-02-28T12:14:57;17.13;;;9.98;;
73909;SDS011;62245;48.070;7.874;2024-02-28T12:17:24;20.52;;;10.15;;
73909;SDS011;62245;48.070;7.874;2024-02-28T12:19:50;18.77;;;10.23;;
73909;SDS011;62245;48.070;7.874;2024-02-28T12:22:16;17.92;;;10.32;;
73909;SDS011;62245;48.070;7.874;2024-02-28T12:24:41;18.35;;;10.23;;
73909;SDS011;62245;48.070;7.874;2024-02-28T12:27:06;20.73;;;9.73;;
73909;SDS011;62245;48.070;7.874;2024-02-28T12:29:32;20.20;;;10.35;;
73909;SDS011;62245;48.070;7.874;2024-02-28T12:31:57;17.70;;;9.60;;
73909;SDS011;62245;48.070;7.874;2024-02-28T12:34:22;18.77;;;10.23;;
73909;SDS011;62245;48.070;7.874;2024-02-28T12:36:47;15.80;;;9.27;;
73909;SDS011;62245;48.070;7.874;2024-02-28T12:39:13;17.43;;;9.77;;
73909;SDS011;62245;48.070;7.874;2024-02-28T12:41:38;16.58;;;9.13;;
73909;SDS011;62245;48.070;7.874;2024-02-28T12:44:05;17.05;;;10.20;;
73909;SDS011;62245;48.070;7.874;2024-02-28T12:46:33;15.98;;;9.30;;
73909;SDS011;62245;48.070;7.874;2024-02-28T12:49:00;17.70;;;9.70;;
73909;SDS011;62245;48.070;7.874;2024-02-28T12:51:44;17.20;;;10.13;;
73909;SDS011;62245;48.070;7.874;2024-02-28T12:54:11;17.02;;;9.10;;
73909;SDS011;62245;48.070;7.874;2024-02-28T12:56:38;16.15;;;9.52;;
73909;SDS011;62245;48.070;7.874;2024-02-28T12:59:04;18.90;;;9.85;;
73909;SDS011;62245;48.070;7.874;2024-02-28T13:01:32;18.55;;;10.18;;
73909;SDS011;62245;48.070;7.874;2024-02-28T13:03:57;17.60;;;9.82;;
73909;SDS011;62245;48.070;7.874;2024-02-28T13:06:23;17.20;;;9.17;;
73909;SDS011;62245;48.070;7.874;2024-02-28T13:08:48;16.27;;;8.60;;
73909;SDS011;62245;48.070;7.874;2024-02-28T13:11:20;16.17;;;8.90;;
73909;SDS011;62245;48.070;7.874;2024-02-28T13:13:49;18.73;;;8.85;;
73909;SDS011;62245;48.070;7.874;2024-02-28T13:16:16;16.88;;;9.10;;
73909;SDS011;62245;48.070;7.874;2024-02-28T13:18:42;15.75;;;9.07;;
73909;SDS011;62245;48.070;7.874;2024-02-28T13:21:08;19.80;;;9.55;;
73909;SDS011;62245;48.070;7.874;2024-02-28T13:23:34;16.77;;;9.80;;
73909;SDS011;62245;48.070;7.874;2024-02-28T13:25:59;17.10;;;9.40;;
73909;SDS011;62245;48.070;7.874;2024-02-28T13:28:26;15.60;;;9.13;;
73909;SDS011;62245;48.070;7.874;2024-02-28T13:30:58;16.50;;;8.82;;
73909;SDS011;62245;48.070;7.874;2024-02-28T13:33:23;15.75;;;9.38;;
73909;SDS011;62245;48.070;7.874;2024-02-28T13:35:49;15.15;;;8.85;;
73909;SDS011;62245;48.070;7.874;2024-02-28T13:38:14;14.47;;;8.60;;
73909;SDS011;62245;48.070;7.874;2024-02-28T13:40:39;17.17;;;8.77;;
73909;SDS011;62245;48.070;7.874;2024-02-28T13:43:06;15.48;;;8.85;;
73909;SDS011;62245;48.070;7.874;2024-02-28T13:45:32;15.65;;;8.68;;
73909;SDS011;62245;48.070;7.874;2024-02-28T13:47:57;16.27;;;8.75;;
73909;SDS011;62245;48.070;7.874;2024-02-28T13:50:22;15.93;;;9.53;;
73909;SDS011;62245;48.070;7.874;2024-02-28T13:52:56;16.40;;;8.52;;
73909;SDS011;62245;48.070;7.874;2024-02-28T13:55:21;15.02;;;8.23;;
73909;SDS011;62245;48.070;7.874;2024-02-28T13:57:47;15.13;;;8.35;;
73909;SDS011;62245;48.070;7.874;2024-02-28T14:00:13;15.80;;;8.37;;
73909;SDS011;62245;48.070;7.874;2024-02-28T14:02:39;16.40;;;9.10;;
73909;SDS011;62245;48.070;7.874;2024-02-28T14:05:04;16.50;;;9.13;;
73909;SDS011;62245;48.070;7.874;2024-02-28T14:07:30;15.68;;;8.30;;
73909;SDS011;62245;48.070;7.874;2024-02-28T14:09:55;13.80;;;7.50;;
73909;SDS011;62245;48.070;7.874;2024-02-28T14:12:22;16.95;;;8.93;;
73909;SDS011;62245;48.070;7.874;2024-02-28T14:14:47;14.43;;;7.50;;
73909;SDS011;62245;48.070;7.874;2024-02-28T14:17:12;16.20;;;8.57;;
73909;SDS011;62245;48.070;7.874;2024-02-28T14:19:38;15.73;;;8.07;;
73909;SDS011;62245;48.070;7.874;2024-02-28T14:22:03;13.93;;;8.05;;
73909;SDS011;62245;48.070;7.874;2024-02-28T14:24:29;15.93;;;8.90;;
73909;SDS011;62245;48.070;7.874;2024-02-28T14:26:54;14.85;;;7.45;;
73909;SDS011;62245;48.070;7.874;2024-02-28T14:29:20;15.97;;;8.67;;
73909;SDS011;62245;48.070;7.874;2024-02-28T14:31:45;15.57;;;7.80;;
73909;SDS011;62245;48.070;7.874;2024-02-28T14:34:11;15.00;;;7.90;;
73909;SDS011;62245;48.070;7.874;2024-02-28T14:36:36;14.63;;;8.17;;
73909;SDS011;62245;48.070;7.874;2024-02-28T14:39:01;14.80;;;7.83;;
73909;SDS011;62245;48.070;7.874;2024-02-28T14:41:27;13.43;;;7.60;;
73909;SDS011;62245;48.070;7.874;2024-02-28T14:43:53;14.20;;;7.55;;
73909;SDS011;62245;48.070;7.874;2024-02-28T14:46:18;14.18;;;7.45;;
73909;SDS011;62245;48.070;7.874;2024-02-28T14:48:46;14.32;;;7.43;;
73909;SDS011;62245;48.070;7.874;2024-02-28T14:51:16;15.40;;;8.20;;
73909;SDS011;62245;48.070;7.874;2024-02-28T14:53:42;14.05;;;7.72;;
73909;SDS011;62245;48.070;7.874;2024-02-28T14:56:07;13.37;;;7.60;;
73909;SDS011;62245;48.070;7.874;2024-02-28T14:58:32;15.20;;;7.70;;
73909;SDS011;62245;48.070;7.874;2024-02-28T15:00:58;13.73;;;7.83;;
73909;SDS011;62245;48.070;7.874;2024-02-28T15:03:25;15.32;;;8.32;;
73909;SDS011;62245;48.070;7.874;2024-02-28T15:05:50;14.70;;;7.90;;
73909;SDS011;62245;48.070;7.874;2024-02-28T15:08:15;14.70;;;8.83;;
73909;SDS011;62245;48.070;7.874;2024-02-28T15:10:41;15.52;;;8.13;;
73909;SDS011;62245;48.070;7.874;2024-02-28T15:13:06;15.63;;;8.47;;
73909;SDS011;62245;48.070;7.874;2024-02-28T15:15:32;16.30;;;8.52;;
73909;SDS011;62245;48.070;7.874;2024-02-28T15:17:57;14.23;;;8.23;;
73909;SDS011;62245;48.070;7.874;2024-02-28T15:20:23;14.88;;;7.90;;
73909;SDS011;62245;48.070;7.874;2024-02-28T15:22:48;14.83;;;7.67;;
73909;SDS011;62245;48.070;7.874;2024-02-28T15:25:13;15.90;;;8.57;;
73909;SDS011;62245;48.070;7.874;2024-02-28T15:27:39;17.27;;;7.93;;
73909;SDS011;62245;48.070;7.874;2024-02-28T15:30:04;14.97;;;8.63;;
73909;SDS011;62245;48.070;7.874;2024-02-28T15:32:30;15.32;;;8.02;;
73909;SDS011;62245;48.070;7.874;2024-02-28T15:34:57;15.48;;;8.15;;
73909;SDS011;62245;48.070;7.874;2024-02-28T15:37:22;15.27;;;7.73;;
73909;SDS011;62245;48.070;7.874;2024-02-28T15:39:47;15.43;;;8.47;;
73909;SDS011;62245;48.070;7.874;2024-02-28T15:42:14;15.57;;;8.75;;
73909;SDS011;62245;48.070;7.874;2024-02-28T15:44:40;16.67;;;8.50;;
73909;SDS011;62245;48.070;7.874;2024-02-28T15:47:07;16.15;;;8.70;;
73909;SDS011;62245;48.070;7.874;2024-02-28T15:49:33;15.38;;;7.72;;
73909;SDS011;62245;48.070;7.874;2024-02-28T15:51:59;16.88;;;8.65;;
73909;SDS011;62245;48.070;7.874;2024-02-28T15:54:25;13.45;;;7.18;;
73909;SDS011;62245;48.070;7.874;2024-02-28T15:56:52;15.15;;;8.38;;
73909;SDS011;62245;48.070;7.874;2024-02-28T15:59:17;16.77;;;8.57;;
73909;SDS011;62245;48.070;7.874;2024-02-28T16:01:42;14.45;;;7.85;;
73909;SDS011;62245;48.070;7.874;2024-02-28T16:04:08;17.23;;;8.57;;
73909;SDS011;62245;48.070;7.874;2024-02-28T16:06:34;16.33;;;8.27;;
73909;SDS011;62245;48.070;7.874;2024-02-28T16:08:59;14.87;;;8.03;;
73909;SDS011;62245;48.070;7.874;2024-02-28T16:11:25;14.70;;;8.57;;
73909;SDS011;62245;48.070;7.874;2024-02-28T16:13:50;14.50;;;8.23;;
73909;SDS011;62245;48.070;7.874;2024-02-28T16:16:15;15.53;;;8.33;;
73909;SDS011;62245;48.070;7.874;2024-02-28T16:18:41;14.68;;;7.93;;
73909;SDS011;62245;48.070;7.874;2024-02-28T16:21:07;16.60;;;7.70;;
73909;SDS011;62245;48.070;7.874;2024-02-28T16:23:33;14.45;;;7.63;;
73909;SDS011;62245;48.070;7.874;2024-02-28T16:25:59;15.15;;;8.13;;
73909;SDS011;62245;48.070;7.874;2024-02-28T16:28:24;16.17;;;8.88;;
73909;SDS011;62245;48.070;7.874;2024-02-28T16:30:51;14.27;;;7.75;;
73909;SDS011;62245;48.070;7.874;2024-02-28T16:33:17;16.08;;;8.55;;
73909;SDS011;62245;48.070;7.874;2024-02-28T16:35:42;12.30;;;6.73;;
73909;SDS011;62245;48.070;7.874;2024-02-28T16:38:08;17.27;;;8.85;;
73909;SDS011;62245;48.070;7.874;2024-02-28T16:40:33;14.43;;;7.70;;
73909;SDS011;62245;48.070;7.874;2024-02-28T16:42:59;16.17;;;8.57;;
73909;SDS011;62245;48.070;7.874;2024-02-28T16:45:24;15.73;;;8.20;;
73909;SDS011;62245;48.070;7.874;2024-02-28T16:47:49;17.38;;;8.25;;
73909;SDS011;62245;48.070;7.874;2024-02-28T16:50:15;15.52;;;8.57;;
73909;SDS011;62245;48.070;7.874;2024-02-28T16:52:40;14.97;;;8.67;;
73909;SDS011;62245;48.070;7.874;2024-02-28T16:55:06;13.73;;;6.80;;
73909;SDS011;62245;48.070;7.874;2024-02-28T16:57:31;14.75;;;7.88;;
73909;SDS011;62245;48.070;7.874;2024-02-28T16:59:57;12.77;;;7.10;;
73909;SDS011;62245;48.070;7.874;2024-02-28T17:02:22;14.00;;;7.47;;
73909;SDS011;62245;48.070;7.874;2024-02-28T17:04:47;27.60;;;12.90;;
73909;SDS011;62245;48.070;7.874;2024-02-28T17:07:12;17.50;;;8.30;;
73909;SDS011;62245;48.070;7.874;2024-02-28T17:09:43;13.57;;;7.40;;
73909;SDS011;62245;48.070;7.874;2024-02-28T17:12:09;14.18;;;7.32;;
73909;SDS011;62245;48.070;7.874;2024-02-28T17:14:34;15.23;;;8.20;;
73909;SDS011;62245;48.070;7.874;2024-02-28T17:17:00;12.40;;;6.43;;
73909;SDS011;62245;48.070;7.874;2024-02-28T17:19:25;12.50;;;6.77;;